Time;durP1;ratioP1;P1;durP2;ratioP2;P2;SDS_P1;SDS_P2;PMS_P1;PMS_P2;Temp;Humidity;BMP_temperature;BMP_pressure;BME280_temperature;BME280_humidity;BME280_pressure;Samples;Min_cycle;Max_cycle;Signal;HPM_P1;HPM_P2
2024/04/17 00:10:12;392287.00;1.31;676.55;9914.00;0.03;17.80;;;;;10.50;1.00;;;;;;2203323;61;1805;-85
2024/04/17 00:15:54;28333.00;0.09;49.70;0.00;0.00;0.62;;;;;10.40;1.00;;;;;;983072;60;3549;-89
2024/04/17 01:03:32;69453.00;0.23;120.82;0.00;0.00;0.62;;;;;10.30;1.00;;;;;;2169888;66;1360;-89
2024/04/17 01:05:58;161136.00;0.54;279.00;0.00;0.00;0.62;;;;;10.40;1.00;;;;;;2211419;60;3487;-87
2024/04/17 01:19:15;883656.00;2.95;1527.43;92722.00;0.31;161.01;;;;;10.70;1.00;;;;;;2315679;60;3341;31
2024/04/17 01:37:00;305670.00;1.02;527.67;0.00;0.00;0.62;;;;;11.10;1.00;;;;;;2316776;60;3496;31
2024/04/17 01:57:00;417515.00;1.39;719.92;0.00;0.00;0.62;;;;;10.20;1.00;;;;;;2181517;66;1156;-91
2024/04/17 01:59:26;0.00;0.00;0.62;0.00;0.00;0.62;;;;;10.00;1.00;;;;;;2316401;60;3594;31
2024/04/17 02:06:55;296726.00;0.99;512.29;31610.00;0.11;55.37;;;;;11.40;1.00;;;;;;2180199;66;1352;-89
2024/04/17 02:12:00;132495.00;0.44;229.63;0.00;0.00;0.62;;;;;11.50;1.00;;;;;;2170201;66;1355;-89
2024/04/17 02:14:26;0.00;0.00;0.62;0.00;0.00;0.62;;;;;11.70;1.00;;;;;;2170873;66;387;-90
2024/04/17 02:19:24;272751.00;0.91;471.07;0.00;0.00;0.62;;;;;11.80;1.00;;;;;;2183963;60;3539;-88
2024/04/17 02:21:49;46939.00;0.16;81.89;0.00;0.00;0.62;;;;;12.00;1.00;;;;;;2188063;65;1902;-90
2024/04/17 02:24:18;83912.00;0.28;145.79;0.00;0.00;0.62;;;;;11.90;1.00;;;;;;2188106;65;1707;-89
2024/04/17 02:26:44;46431.00;0.15;81.01;0.00;0.00;0.62;;;;;11.80;1.00;;;;;;2188078;65;1550;-87
2024/04/17 02:29:15;123079.00;0.41;213.39;0.00;0.00;0.62;;;;;11.70;1.00;;;;;;2187995;60;3521;-85
2024/04/17 02:36:55;186966.00;0.62;323.48;0.00;0.00;0.62;;;;;11.70;1.00;;;;;;2192742;60;3541;-88
2024/04/17 03:04:26;235672.00;0.79;407.31;93912.00;0.31;163.06;;;;;11.20;1.00;;;;;;2184396;60;3418;-85
2024/04/17 03:21:56;118168904.00;393.90;66841432.00;84772.00;0.28;147.28;;;;;11.40;1.00;;;;;;2182811;60;3446;-87
2024/04/17 03:31:54;430345.00;1.43;741.98;91633.00;0.31;159.13;;;;;11.00;1.00;;;;;;2180970;65;1353;-86
2024/04/17 03:34:20;1280987.00;4.27;2237.35;705356.00;2.35;1216.53;;;;;10.80;1.00;;;;;;2181021;65;903;-87
2024/04/17 03:36:48;439351.00;1.46;757.47;95419.00;0.32;165.66;;;;;10.90;1.00;;;;;;2182846;60;3624;-87
2024/04/17 03:39:19;708304.00;2.36;1221.64;77667.00;0.26;135.01;;;;;10.70;1.00;;;;;;2185131;61;3481;-87
2024/04/17 03:46:52;1250012.00;4.17;2180.91;92131.00;0.31;159.99;;;;;11.00;1.00;;;;;;2222751;60;3559;-87
2024/04/17 03:49:18;820947.00;2.74;1417.68;125962.00;0.42;218.37;;;;;11.00;1.00;;;;;;2225584;60;3601;-89
2024/04/17 04:19:23;758881.00;2.53;1309.50;0.00;0.00;0.62;;;;;11.50;1.00;;;;;;2175629;66;1213;-90
2024/04/17 04:37:07;244308.00;0.81;422.16;0.00;0.00;0.62;;;;;11.20;1.00;;;;;;2309414;60;3420;31
2024/04/17 04:47:38;262560.00;0.88;453.55;0.00;0.00;0.62;;;;;12.10;1.00;;;;;;2316321;60;3386;31
2024/04/17 04:50:12;225202.00;0.75;389.29;0.00;0.00;0.62;;;;;11.60;1.00;;;;;;2302761;61;3575;31
2024/04/17 05:26:53;43893.00;0.15;76.62;0.00;0.00;0.62;;;;;10.40;1.00;;;;;;2312381;61;1865;31
2024/04/17 05:47:18;423532.00;1.41;730.26;0.00;0.00;0.62;;;;;10.80;1.00;;;;;;2308374;60;3578;31
2024/04/17 06:27:16;393306.00;1.31;678.30;0.00;0.00;0.62;;;;;12.40;1.00;;;;;;2315717;60;3488;31
2024/04/17 06:45:04;299491.00;1.00;517.05;0.00;0.00;0.62;;;;;10.10;1.00;;;;;;2306248;60;3522;31
2024/04/17 06:52:29;487035.00;1.62;839.51;0.00;0.00;0.62;;;;;10.30;1.00;;;;;;2310202;60;3349;31
2024/04/17 07:07:29;608812.00;2.03;1049.44;0.00;0.00;0.62;;;;;11.30;1.00;;;;;;1889459;60;3569;-86
2024/04/17 07:09:55;0.00;0.00;0.62;0.00;0.00;0.62;;;;;11.40;1.00;;;;;;2175772;65;906;-86
2024/04/17 07:12:23;4518.00;0.02;8.45;0.00;0.00;0.62;;;;;11.60;1.00;;;;;;2175932;65;894;-86
2024/04/17 07:14:49;61624.00;0.21;107.28;0.00;0.00;0.62;;;;;12.00;1.00;;;;;;2175884;65;1152;-87
2024/04/17 07:17:18;0.00;0.00;0.62;0.00;0.00;0.62;;;;;12.00;1.00;;;;;;2175731;65;1632;-88
2024/04/17 07:19:44;3779.00;0.01;7.17;0.00;0.00;0.62;;;;;11.50;1.00;;;;;;2175686;65;1523;-87
2024/04/17 07:22:12;43588.00;0.15;76.10;0.00;0.00;0.62;;;;;10.80;1.00;;;;;;2175794;65;1932;-86
2024/04/17 07:24:41;18929.00;0.06;33.42;0.00;0.00;0.62;;;;;10.40;1.00;;;;;;2175842;65;1354;-87
2024/04/17 07:27:09;98313.00;0.33;170.66;0.00;0.00;0.62;;;;;9.90;1.00;;;;;;2175739;65;1219;-87
2024/04/17 07:29:35;30666.00;0.10;53.74;0.00;0.00;0.62;;;;;9.70;1.00;;;;;;2175826;65;1686;-88
2024/04/17 07:32:04;0.00;0.00;0.62;0.00;0.00;0.62;;;;;10.00;1.00;;;;;;2175781;65;911;-88
2024/04/17 07:34:30;18806.00;0.06;33.20;0.00;0.00;0.62;;;;;10.40;1.00;;;;;;2175716;65;1474;-85
2024/04/17 07:36:58;50737.00;0.17;88.46;0.00;0.00;0.62;;;;;10.60;1.00;;;;;;2175732;65;871;-88
2024/04/17 07:39:24;49029.00;0.16;85.51;0.00;0.00;0.62;;;;;10.00;1.00;;;;;;2175764;65;1630;-87
2024/04/17 07:41:55;179755.00;0.60;311.07;39791.00;0.13;69.53;;;;;9.50;1.00;;;;;;2175730;65;1903;-87
2024/04/17 07:44:21;7992.00;0.03;14.47;0.00;0.00;0.62;;;;;9.30;1.00;;;;;;2175807;65;1292;-88
2024/04/17 07:46:50;38266.00;0.13;66.89;0.00;0.00;0.62;;;;;9.20;1.00;;;;;;2175889;65;994;-86
2024/04/17 07:49:16;86910.00;0.29;150.97;0.00;0.00;0.62;;;;;9.20;1.00;;;;;;2175572;65;1563;-87
2024/04/17 07:51:45;14295.00;0.05;25.39;0.00;0.00;0.62;;;;;9.30;1.00;;;;;;2175745;65;972;-88
2024/04/17 07:54:10;222736.00;0.74;385.05;62539.00;0.21;108.87;;;;;9.70;1.00;;;;;;2175697;65;1017;-87
2024/04/17 07:56:39;183436.00;0.61;317.41;0.00;0.00;0.62;;;;;10.30;1.00;;;;;;2175680;65;1538;-87
2024/04/17 07:59:07;31556.00;0.11;55.28;0.00;0.00;0.62;;;;;10.20;1.00;;;;;;2175583;65;1694;-86
2024/04/17 08:01:36;11046.00;0.04;19.76;0.00;0.00;0.62;;;;;9.20;1.00;;;;;;2175720;65;1574;-86
2024/04/17 08:04:02;28462.00;0.09;49.92;0.00;0.00;0.62;;;;;9.10;1.00;;;;;;2175611;65;1912;-87
2024/04/17 08:06:30;549026.00;1.83;946.28;52715.00;0.18;91.88;;;;;9.80;1.00;;;;;;2175334;65;1116;-88
2024/04/17 08:08:56;1030637.00;3.44;1786.81;229846.00;0.77;397.28;;;;;11.00;1.00;;;;;;2170064;66;1326;-86
2024/04/17 08:11:25;1292699.00;4.31;2258.75;178978.00;0.60;309.73;;;;;11.60;1.00;;;;;;2170069;66;963;-87
2024/04/17 08:13:51;921805.00;3.07;1594.45;107487.00;0.36;186.49;;;;;11.40;1.00;;;;;;2170072;66;955;-87
2024/04/17 08:16:22;422911.00;1.41;729.20;105759.00;0.35;183.51;;;;;10.40;1.00;;;;;;2169998;66;1077;-88
2024/04/17 08:18:47;1408546.00;4.70;2472.18;211163.00;0.70;365.14;;;;;9.90;1.00;;;;;;2170022;66;1366;-88
2024/04/17 08:21:16;230799.00;0.77;398.92;0.00;0.00;0.62;;;;;9.20;1.00;;;;;;2169510;66;1080;-87
2024/04/17 08:23:42;92597.00;0.31;160.79;0.00;0.00;0.62;;;;;8.80;1.00;;;;;;2169965;66;1894;-86
2024/04/17 08:26:11;199001.00;0.66;344.20;0.00;0.00;0.62;;;;;8.40;1.00;;;;;;2169777;66;2340;-87
2024/04/17 08:28:37;9422.00;0.03;16.95;0.00;0.00;0.62;;;;;8.20;1.00;;;;;;2169961;66;1254;-86
2024/04/17 08:31:05;980514.00;3.27;1697.99;120938.00;0.40;209.70;;;;;8.10;1.00;;;;;;2169746;66;1092;-89
2024/04/17 08:33:34;65028.00;0.22;113.17;0.00;0.00;0.62;;;;;8.10;1.00;;;;;;2169829;66;1603;-89
2024/04/17 08:36:02;295780.00;0.99;510.67;0.00;0.00;0.62;;;;;8.00;1.00;;;;;;2170019;66;909;-87
2024/04/17 08:38:28;41872.00;0.14;73.13;0.00;0.00;0.62;;;;;7.80;1.00;;;;;;2169904;66;1232;-88
2024/04/17 08:40:57;17430.00;0.06;30.82;0.00;0.00;0.62;;;;;7.80;1.00;;;;;;2169957;66;912;-88
2024/04/17 08:43:25;29100.00;0.10;51.03;0.00;0.00;0.62;;;;;8.00;1.00;;;;;;2169741;66;2201;-88
2024/04/17 08:45:55;25929.00;0.09;45.54;0.00;0.00;0.62;;;;;8.10;1.00;;;;;;2169684;66;1967;-87
2024/04/17 08:48:22;99970.00;0.33;173.52;0.00;0.00;0.62;;;;;7.90;1.00;;;;;;2169945;66;1642;-87
2024/04/17 08:50:54;99118.00;0.33;172.05;0.00;0.00;0.62;;;;;8.20;1.00;;;;;;2169887;66;1032;-89
2024/04/17 08:53:22;4846.00;0.02;9.02;0.00;0.00;0.62;;;;;8.70;1.00;;;;;;2169917;66;1209;-86
2024/04/17 08:55:52;32861.00;0.11;57.53;0.00;0.00;0.62;;;;;8.70;1.00;;;;;;2169826;66;2399;-86
2024/04/17 08:58:18;16667.00;0.06;29.50;0.00;0.00;0.62;;;;;9.10;1.00;;;;;;2179465;61;3520;-86
2024/04/17 09:00:52;171114.00;0.57;296.19;0.00;0.00;0.62;;;;;8.80;1.00;;;;;;2175429;65;864;-89
2024/04/17 09:03:21;41659.00;0.14;72.76;0.00;0.00;0.62;;;;;8.50;1.00;;;;;;2175557;65;1873;-86
2024/04/17 09:05:54;115581.00;0.39;200.46;0.00;0.00;0.62;;;;;8.40;1.00;;;;;;2175470;65;1008;-86
2024/04/17 09:08:21;106815.00;0.36;185.33;23694.00;0.08;41.67;;;;;8.50;1.00;;;;;;2175587;65;1664;-88
2024/04/17 09:10:50;893277.00;2.98;1544.32;152051.00;0.51;263.34;;;;;8.30;1.00;;;;;;2175450;65;1649;-86
2024/04/17 09:13:17;265478.00;0.88;458.57;72630.00;0.24;126.30;;;;;8.50;1.00;;;;;;2175614;65;950;-86
2024/04/17 09:15:45;245764.00;0.82;424.67;18478.00;0.06;32.63;;;;;8.60;1.00;;;;;;2175596;65;956;-86
2024/04/17 09:18:11;75389.00;0.25;131.07;0.00;0.00;0.62;;;;;8.50;1.00;;;;;;2175593;65;1260;-86
2024/04/17 09:20:40;126944.00;0.42;220.06;0.00;0.00;0.62;;;;;9.00;1.00;;;;;;2175376;65;986;-87
2024/04/17 09:23:11;87982.00;0.29;152.82;0.00;0.00;0.62;;;;;8.60;1.00;;;;;;2175291;65;1899;-87
2024/04/17 09:25:40;58084.00;0.19;101.16;0.00;0.00;0.62;;;;;8.70;1.00;;;;;;2175402;65;963;-87
2024/04/17 09:28:09;170513.00;0.57;295.15;0.00;0.00;0.62;;;;;9.10;1.00;;;;;;2175580;65;1644;-87
2024/04/17 09:30:37;87269.00;0.29;151.59;0.00;0.00;0.62;;;;;9.00;1.00;;;;;;2175339;65;1658;-88
2024/04/17 09:33:04;41949.00;0.14;73.26;0.00;0.00;0.62;;;;;8.90;1.00;;;;;;2175470;65;921;-87
2024/04/17 09:35:33;45007.00;0.15;78.55;0.00;0.00;0.62;;;;;9.10;1.00;;;;;;2185668;61;3630;-88
2024/04/17 09:37:59;62969.00;0.21;109.61;0.00;0.00;0.62;;;;;9.40;1.00;;;;;;2186804;65;1216;-86
2024/04/17 09:40:31;70888.00;0.24;123.29;0.00;0.00;0.62;;;;;9.90;1.00;;;;;;2186947;65;1614;-86
2024/04/17 09:42:57;200816.00;0.67;347.33;49827.00;0.17;86.89;;;;;10.30;1.00;;;;;;2186928;65;1865;-87
2024/04/17 09:45:30;53270.00;0.18;92.84;0.00;0.00;0.62;;;;;10.80;1.00;;;;;;2187003;65;992;-87
2024/04/17 09:47:57;265447.00;0.88;458.52;97658.00;0.33;169.53;;;;;10.40;1.00;;;;;;2186914;65;1498;-86
2024/04/17 09:50:28;161861.00;0.54;280.25;0.00;0.00;0.62;;;;;10.00;1.00;;;;;;2186825;65;1098;-86
2024/04/17 09:52:59;19165.00;0.06;33.82;0.00;0.00;0.62;;;;;9.70;1.00;;;;;;2186943;65;1530;-87
2024/04/17 09:55:32;245714.00;0.82;424.58;0.00;0.00;0.62;;;;;9.00;1.00;;;;;;2187372;65;839;-87
2024/04/17 09:58:00;181707.00;0.61;314.43;33513.00;0.11;58.66;;;;;9.10;1.00;;;;;;2187493;65;1388;-86
2024/04/17 10:00:31;40999.00;0.14;71.62;0.00;0.00;0.62;;;;;9.30;1.00;;;;;;2187454;65;1014;-87
2024/04/17 10:02:59;11838.00;0.04;21.13;0.00;0.00;0.62;;;;;9.50;1.00;;;;;;2187345;65;1860;-86
2024/04/17 10:05:30;2737.00;0.01;5.36;0.00;0.00;0.62;;;;;9.20;1.00;;;;;;2187410;65;1459;-87
2024/04/17 10:07:58;12416.00;0.04;22.13;0.00;0.00;0.62;;;;;9.00;1.00;;;;;;2187491;65;1333;-86
2024/04/17 10:10:31;24474.00;0.08;43.02;0.00;0.00;0.62;;;;;9.20;1.00;;;;;;2187430;65;872;-86
2024/04/17 10:48:17;148269.00;0.49;256.82;0.00;0.00;0.62;;;;;11.50;1.00;;;;;;2181084;65;1366;-86
2024/04/17 10:50:43;323339.00;1.08;558.04;53866.00;0.18;93.87;;;;;11.80;1.00;;;;;;2181631;65;975;-88
2024/04/17 10:53:13;207138.00;0.69;358.21;0.00;0.00;0.62;;;;;12.50;1.00;;;;;;2181837;65;1827;-87
2024/04/17 10:55:39;794471.00;2.65;1371.48;99430.00;0.33;172.59;;;;;12.60;1.00;;;;;;2181862;65;1645;-87
2024/04/17 10:58:09;674963.00;2.25;1163.85;71319.00;0.24;124.04;;;;;12.90;1.00;;;;;;2181828;65;1251;-89
2024/04/17 11:00:35;605839.00;2.02;1044.30;75378.00;0.25;131.05;;;;;13.10;1.00;;;;;;2181882;65;1075;-88
2024/04/17 11:03:03;84462.00;0.28;146.74;0.00;0.00;0.62;;;;;13.20;1.00;;;;;;2198826;60;3509;-86
2024/04/17 11:05:32;35232.00;0.12;61.64;0.00;0.00;0.62;;;;;13.30;1.00;;;;;;2181581;65;1515;-86
2024/04/17 11:08:02;65087.00;0.22;113.27;0.00;0.00;0.62;;;;;13.00;1.00;;;;;;2184059;65;1217;-87
2024/04/17 11:10:28;331896.00;1.11;572.74;16310.00;0.05;28.88;;;;;13.80;1.00;;;;;;2187724;65;2291;-85
2024/04/17 11:12:56;1065999.00;3.55;1849.72;57837.00;0.19;100.74;;;;;14.50;1.00;;;;;;2187735;65;977;-87
2024/04/17 11:15:22;437693.00;1.46;754.62;33217.00;0.11;58.15;;;;;15.10;1.00;;;;;;2187844;65;963;-88
2024/04/17 11:17:51;523206.00;1.74;901.79;62766.00;0.21;109.26;;;;;15.60;1.00;;;;;;2187786;65;1295;-85
2024/04/17 11:20:17;723297.00;2.41;1247.66;47709.00;0.16;83.22;;;;;15.60;1.00;;;;;;2187780;65;1021;-88
2024/04/17 11:22:48;852399.00;2.84;1472.67;89926.00;0.30;156.18;;;;;15.60;1.00;;;;;;2187658;65;1887;-88
2024/04/17 11:25:16;221851.00;0.74;383.53;40566.00;0.14;70.87;;;;;15.10;1.00;;;;;;2187519;65;929;-85
2024/04/17 11:27:46;359990.00;1.20;621.03;16841.00;0.06;29.80;;;;;15.20;1.00;;;;;;2187379;65;1654;-87
2024/04/17 11:30:17;346267.00;1.15;597.45;32044.00;0.11;56.12;;;;;15.00;1.00;;;;;;2187476;65;1087;-89
2024/04/17 11:32:45;75439.00;0.25;131.16;0.00;0.00;0.62;;;;;14.80;1.00;;;;;;2187435;65;1740;-89
2024/04/17 11:35:14;33978.00;0.11;59.47;0.00;0.00;0.62;;;;;14.80;1.00;;;;;;2187360;65;1044;-87
2024/04/17 11:37:43;0.00;0.00;0.62;0.00;0.00;0.62;;;;;14.50;1.00;;;;;;2187321;65;1365;-88
2024/04/17 11:40:12;718364.00;2.39;1239.10;117684.00;0.39;204.09;;;;;14.70;1.00;;;;;;2187410;65;988;-86
2024/04/17 11:42:42;8278.00;0.03;14.97;0.00;0.00;0.62;;;;;15.00;1.00;;;;;;2187181;65;1898;-87
2024/04/17 11:45:09;33205.00;0.11;58.13;0.00;0.00;0.62;;;;;15.30;1.00;;;;;;2187398;65;841;-87
2024/04/17 11:47:38;100699.00;0.34;174.78;0.00;0.00;0.62;;;;;15.20;1.00;;;;;;2187282;65;1595;-87
2024/04/17 11:50:06;33607.00;0.11;58.83;0.00;0.00;0.62;;;;;15.00;1.00;;;;;;2187261;65;1578;-87
2024/04/17 11:52:34;14224.00;0.05;25.27;0.00;0.00;0.62;;;;;15.00;1.00;;;;;;2187339;65;865;-88
2024/04/17 11:55:00;7945.00;0.03;14.39;0.00;0.00;0.62;;;;;14.90;1.00;;;;;;2187396;65;964;-88
2024/04/17 11:57:32;278071.00;0.93;480.22;31464.00;0.10;55.12;;;;;14.50;1.00;;;;;;2187210;65;2382;-88
2024/04/17 11:59:58;305994.00;1.02;528.22;82927.00;0.28;144.09;;;;;14.60;1.00;;;;;;2187142;65;1952;-87
2024/04/17 12:02:27;165001.00;0.55;285.66;81494.00;0.27;141.62;;;;;14.40;1.00;;;;;;2187158;65;1895;-88
2024/04/17 12:04:53;174114.00;0.58;301.35;84870.00;0.28;147.45;;;;;14.00;1.00;;;;;;2187109;65;1545;-88
2024/04/17 12:07:22;262115.00;0.87;452.79;0.00;0.00;0.62;;;;;14.30;1.00;;;;;;2187276;65;1208;-88
2024/04/17 12:09:48;202228.00;0.67;349.76;13384.00;0.04;23.81;;;;;14.00;1.00;;;;;;2187147;65;874;-90
2024/04/17 12:12:17;252722.00;0.84;436.63;42069.00;0.14;73.47;;;;;14.00;1.00;;;;;;2187198;65;1717;-88
2024/04/17 12:14:46;273996.00;0.91;473.21;35332.00;0.12;61.81;;;;;13.80;1.00;;;;;;2187192;65;1236;-87
2024/04/17 12:17:14;347377.00;1.16;599.35;19619.00;0.07;34.61;;;;;13.90;1.00;;;;;;2187446;65;1237;-88
2024/04/17 12:19:40;148980.00;0.50;258.05;0.00;0.00;0.62;;;;;14.30;1.00;;;;;;2187289;65;1555;-90
2024/04/17 12:22:10;35739.00;0.12;62.52;0.00;0.00;0.62;;;;;15.20;1.00;;;;;;2187373;65;928;-86
2024/04/17 12:27:22;423430.00;1.41;730.09;75726.00;0.25;131.65;;;;;15.80;1.00;;;;;;2406645;57;1311;-87
2024/04/17 12:29:54;0.00;0.00;0.62;0.00;0.00;0.62;;;;;15.20;1.00;;;;;;2187406;65;1085;-88
2024/04/17 12:32:22;179880.00;0.60;311.28;97875.00;0.33;169.90;;;;;15.00;1.00;;;;;;2187262;65;1596;-89
2024/04/17 12:34:51;43151.00;0.14;75.34;0.00;0.00;0.62;;;;;15.80;1.00;;;;;;2187370;65;957;-87
2024/04/17 12:37:19;118903216.00;396.34;68096416.00;118593536.00;395.31;67565256.00;;;;;16.20;1.00;;;;;;2187267;65;1664;-87
2024/04/17 12:39:48;119036456.00;396.79;68325800.00;118712360.00;395.71;67768728.00;;;;;16.10;1.00;;;;;;2187128;65;1495;-88
2024/04/17 12:42:16;158601.00;0.53;274.63;0.00;0.00;0.62;;;;;15.60;1.00;;;;;;2187233;65;1665;-87
2024/04/17 12:44:45;96111.00;0.32;166.86;0.00;0.00;0.62;;;;;15.00;1.00;;;;;;2187380;65;1879;-86
2024/04/17 12:47:16;123382.00;0.41;213.92;0.00;0.00;0.62;;;;;14.80;1.00;;;;;;2187192;65;1188;-86
2024/04/17 12:49:45;229420.00;0.76;396.55;89451.00;0.30;155.36;;;;;14.60;1.00;;;;;;2187386;65;975;-89
2024/04/17 12:52:13;332842.00;1.11;574.37;82380.00;0.27;143.15;;;;;14.60;1.00;;;;;;2187211;65;1547;-84
2024/04/17 12:54:42;627043.00;2.09;1080.94;157351.00;0.52;272.48;;;;;14.40;1.00;;;;;;2187228;65;1558;-89
2024/04/17 12:57:10;207980.00;0.69;359.66;86606.00;0.29;150.45;;;;;14.30;1.00;;;;;;2187304;65;1656;-86
2024/04/17 12:59:36;287289.00;0.96;496.07;137174.00;0.46;237.70;;;;;13.70;1.00;;;;;;2187327;65;867;-85
2024/04/17 13:02:05;98522.00;0.33;171.02;21479.00;0.07;37.83;;;;;13.70;1.00;;;;;;2192098;60;3665;-86
2024/04/17 13:04:34;439857.00;1.47;758.34;0.00;0.00;0.62;;;;;13.50;1.00;;;;;;2188061;60;3461;-84
2024/04/17 13:07:03;61603.00;0.21;107.25;0.00;0.00;0.62;;;;;12.30;1.00;;;;;;2187276;65;1036;-86
2024/04/17 13:09:29;759608.00;2.53;1310.77;173389.00;0.58;300.10;;;;;11.50;1.00;;;;;;2193047;65;1079;-84
2024/04/17 13:11:58;466974.00;1.56;804.98;207856.00;0.69;359.45;;;;;11.20;1.00;;;;;;2192401;65;1137;-87
2024/04/17 13:14:24;437187.00;1.46;753.75;88327.00;0.29;153.42;;;;;10.60;1.00;;;;;;2192921;65;1486;-84
2024/04/17 13:16:52;553807.00;1.85;954.52;192317.00;0.64;332.70;;;;;10.20;1.00;;;;;;2192957;65;1675;-86
2024/04/17 13:19:18;229474.00;0.76;396.64;46205.00;0.15;80.62;;;;;10.20;1.00;;;;;;2209061;60;3673;-86
2024/04/17 13:21:50;720870.00;2.40;1243.45;67774.00;0.23;117.91;;;;;10.40;1.00;;;;;;2186772;65;1860;-86
2024/04/17 13:24:17;864261.00;2.88;1493.44;222481.00;0.74;384.61;;;;;10.50;1.00;;;;;;2187097;65;2316;-85
2024/04/17 13:26:45;745855.00;2.49;1286.85;128306.00;0.43;222.41;;;;;10.50;1.00;;;;;;2187027;65;1678;-86
2024/04/17 13:29:11;908107.00;3.03;1570.36;230019.00;0.77;397.58;;;;;10.50;1.00;;;;;;2192558;65;1672;-89
2024/04/17 13:31:40;474982.00;1.58;818.76;113594.00;0.38;197.03;;;;;10.70;1.00;;;;;;2193405;65;1012;-83
2024/04/17 13:34:06;440709.00;1.47;759.80;76426.00;0.25;132.86;;;;;11.50;1.00;;;;;;2193304;65;1150;-84
2024/04/17 13:36:34;193691.00;0.65;335.06;0.00;0.00;0.62;;;;;12.00;1.00;;;;;;2193339;65;2442;-86
2024/04/17 13:39:03;316062.00;1.05;545.53;8992.00;0.03;16.20;;;;;11.70;1.00;;;;;;2193355;65;1569;-87
2024/04/17 13:41:31;738390.00;2.46;1273.88;168943.00;0.56;292.45;;;;;12.30;1.00;;;;;;2192987;65;1686;-84
2024/04/17 13:43:57;184970.00;0.62;320.05;86528.00;0.29;150.31;;;;;12.60;1.00;;;;;;2193145;65;2381;-83
2024/04/17 13:46:26;162475.00;0.54;281.30;0.00;0.00;0.62;;;;;12.30;1.00;;;;;;2193282;65;940;-84
2024/04/17 13:48:52;118834224.00;396.11;67977832.00;118599456.00;395.33;67575392.00;;;;;12.40;1.00;;;;;;2193534;65;1256;-84
2024/04/17 13:51:21;0.00;0.00;0.62;0.00;0.00;0.62;;;;;12.90;1.00;;;;;;2193114;65;1051;-84
2024/04/17 13:53:52;281939.00;0.94;486.87;51611.00;0.17;89.97;;;;;12.80;1.00;;;;;;2192981;65;1585;-85
2024/04/17 13:56:26;513139.00;1.71;884.45;88116.00;0.29;153.05;;;;;12.80;1.00;;;;;;2192640;65;1003;-84
2024/04/17 13:58:52;758797.00;2.53;1309.36;126493.00;0.42;219.28;;;;;12.70;1.00;;;;;;2192646;65;1247;-84
2024/04/17 14:01:20;240718.00;0.80;415.99;81892.00;0.27;142.31;;;;;12.50;1.00;;;;;;2192716;65;1057;-85
2024/04/17 14:03:46;209991.00;0.70;363.12;90979.00;0.30;158.00;;;;;12.60;1.00;;;;;;2192358;65;1861;-85
2024/04/17 14:06:15;223490.00;0.74;386.35;88739.00;0.30;154.13;;;;;12.30;1.00;;;;;;2192798;65;2281;-84
2024/04/17 14:08:41;231451.00;0.77;400.05;78191.00;0.26;135.91;;;;;12.30;1.00;;;;;;2192614;65;1275;-84
2024/04/17 14:11:10;337020.00;1.12;581.55;88679.00;0.30;154.03;;;;;12.10;1.00;;;;;;2192193;65;1625;-83
2024/04/17 14:13:38;169288.00;0.56;293.04;88030.00;0.29;152.91;;;;;12.10;1.00;;;;;;2191682;65;1438;-83
2024/04/17 14:16:08;427638.00;1.43;737.32;139368.00;0.46;241.48;;;;;11.90;1.00;;;;;;2192027;65;1031;-84
2024/04/17 14:18:34;372210.00;1.24;642.04;78926.00;0.26;137.18;;;;;12.70;1.00;;;;;;2192628;65;1521;-84
2024/04/17 14:21:06;607556.00;2.03;1047.27;189583.00;0.63;327.99;;;;;13.90;1.00;;;;;;2192177;65;1234;-84
2024/04/17 14:23:33;1118531.00;3.73;1943.60;302218.00;1.01;521.73;;;;;14.90;1.00;;;;;;2192090;65;1899;-85
2024/04/17 14:33:59;1197552.00;3.99;2085.79;31794.00;0.11;55.69;;;;;12.90;1.00;;;;;;2153099;67;1353;-92
2024/04/17 14:36:26;401385.00;1.34;692.19;0.00;0.00;0.62;;;;;12.50;1.00;;;;;;2136349;67;774;-95
2024/04/17 14:51:37;569419.00;1.90;981.44;0.00;0.00;0.62;;;;;12.40;1.00;;;;;;2309966;60;3441;31
2024/04/17 15:09:07;680100.00;2.27;1172.75;0.00;0.00;0.62;;;;;11.40;1.00;;;;;;2308323;60;3474;31
2024/04/17 15:31:40;417733.00;1.39;720.29;0.00;0.00;0.62;;;;;11.00;1.00;;;;;;2309251;61;3557;31
2024/04/17 15:34:05;453955.00;1.51;782.59;0.00;0.00;0.62;;;;;10.90;1.00;;;;;;2308318;61;3695;31
2024/04/17 15:54:24;709666.00;2.37;1224.00;91743.00;0.31;159.32;;;;;10.90;1.00;;;;;;2310242;60;3530;31
2024/04/17 16:01:53;238782.00;0.80;412.66;0.00;0.00;0.62;;;;;11.30;1.00;;;;;;2175159;65;1403;-85
2024/04/17 16:04:20;19061.00;0.06;33.64;0.00;0.00;0.62;;;;;11.40;1.00;;;;;;2175715;65;2246;-86
2024/04/17 16:06:49;162098.00;0.54;280.65;0.00;0.00;0.62;;;;;11.80;1.00;;;;;;2175836;65;968;-86
2024/04/17 16:09:19;68247.00;0.23;118.73;0.00;0.00;0.62;;;;;11.60;1.00;;;;;;2181099;65;1266;-85
2024/04/17 16:11:47;8501.00;0.03;15.35;0.00;0.00;0.62;;;;;11.80;1.00;;;;;;2181629;65;1653;-87
2024/04/17 16:14:16;0.00;0.00;0.62;0.00;0.00;0.62;;;;;12.20;1.00;;;;;;2181585;65;915;-87
2024/04/17 16:16:42;179327.00;0.60;310.33;31059.00;0.10;54.42;;;;;12.10;1.00;;;;;;2181386;65;1590;-87
2024/04/17 16:19:10;151121.00;0.50;261.74;0.00;0.00;0.62;;;;;12.50;1.00;;;;;;2181535;65;1252;-87
2024/04/17 16:21:36;55161.00;0.18;96.11;0.00;0.00;0.62;;;;;12.50;1.00;;;;;;2181530;65;1677;-86
2024/04/17 16:24:08;14995.00;0.05;26.60;0.00;0.00;0.62;;;;;12.70;1.00;;;;;;2181509;65;2353;-87
2024/04/17 16:26:34;75843.00;0.25;131.86;8704.00;0.03;15.70;;;;;12.80;1.00;;;;;;2181638;65;1373;-87
2024/04/17 16:29:05;54726.00;0.18;95.36;0.00;0.00;0.62;;;;;13.10;1.00;;;;;;2181474;65;1500;-86
2024/04/17 16:31:31;36168.00;0.12;63.26;0.00;0.00;0.62;;;;;13.20;1.00;;;;;;2181599;65;1033;-87
2024/04/17 16:34:00;208788.00;0.70;361.05;67737.00;0.23;117.85;;;;;13.30;1.00;;;;;;2181536;65;1656;-88
2024/04/17 16:36:26;0.00;0.00;0.62;0.00;0.00;0.62;;;;;13.30;1.00;;;;;;2181537;65;1626;-88
2024/04/17 16:38:54;0.00;0.00;0.62;0.00;0.00;0.62;;;;;12.60;1.00;;;;;;2181515;65;1178;-86
2024/04/17 16:41:20;256394.00;0.85;442.95;43833.00;0.15;76.52;;;;;12.80;1.00;;;;;;2181497;65;1606;-88
2024/04/17 16:43:48;87787.00;0.29;152.49;0.00;0.00;0.62;;;;;12.90;1.00;;;;;;2181469;65;1865;-89
2024/04/17 16:46:17;19386.00;0.06;34.21;0.00;0.00;0.62;;;;;12.80;1.00;;;;;;2181528;65;1092;-88
2024/04/17 16:48:46;162390.00;0.54;281.16;0.00;0.00;0.62;;;;;12.20;1.00;;;;;;2181470;65;1145;-88
2024/04/17 16:51:12;113508.00;0.38;196.88;0.00;0.00;0.62;;;;;12.20;1.00;;;;;;2182016;65;971;-86
2024/04/17 16:53:41;97508.00;0.33;169.27;0.00;0.00;0.62;;;;;11.90;1.00;;;;;;2181383;65;993;-87
2024/04/17 16:56:07;20998.00;0.07;37.00;0.00;0.00;0.62;;;;;11.80;1.00;;;;;;2181348;65;1622;-86
2024/04/17 16:58:37;81235.00;0.27;141.17;0.00;0.00;0.62;;;;;12.10;1.00;;;;;;2181392;65;1196;-86
2024/04/17 17:01:04;0.00;0.00;0.62;0.00;0.00;0.62;;;;;12.00;1.00;;;;;;2181397;65;1257;-87
2024/04/17 17:03:35;440049.00;1.47;758.67;79118.00;0.26;137.51;;;;;12.00;1.00;;;;;;2181422;65;1895;-87
2024/04/17 17:06:02;61834.00;0.21;107.65;0.00;0.00;0.62;;;;;12.30;1.00;;;;;;2181846;65;2311;-87
2024/04/17 17:08:31;60122.00;0.20;104.69;0.00;0.00;0.62;;;;;12.50;1.00;;;;;;2181689;65;1209;-87
2024/04/17 17:10:58;19144.00;0.06;33.79;0.00;0.00;0.62;;;;;12.50;1.00;;;;;;2181706;65;1648;-87
2024/04/17 17:13:26;111717.00;0.37;193.79;0.00;0.00;0.62;;;;;12.70;1.00;;;;;;2181815;65;1647;-88
2024/04/17 17:15:59;19388.00;0.06;34.21;0.00;0.00;0.62;;;;;12.70;1.00;;;;;;2181834;65;1697;-86
2024/04/17 17:18:28;70489.00;0.23;122.61;0.00;0.00;0.62;;;;;12.40;1.00;;;;;;2181796;65;1220;-87
2024/04/17 17:20:57;359618.00;1.20;620.39;42039.00;0.14;73.42;;;;;12.30;1.00;;;;;;2181892;65;928;-85
2024/04/17 17:23:27;178426.00;0.59;308.78;0.00;0.00;0.62;;;;;12.40;1.00;;;;;;2181568;65;1904;-86
2024/04/17 17:25:54;53526.00;0.18;93.28;0.00;0.00;0.62;;;;;12.30;1.00;;;;;;2181726;65;1570;-88
2024/04/17 17:28:24;26595.00;0.09;46.69;0.00;0.00;0.62;;;;;11.70;1.00;;;;;;2181599;65;1199;-86
2024/04/17 17:30:54;90927.00;0.30;157.91;0.00;0.00;0.62;;;;;11.10;1.00;;;;;;2181814;65;865;-86
2024/04/17 17:33:23;14857.00;0.05;26.36;0.00;0.00;0.62;;;;;10.70;1.00;;;;;;2181802;65;1020;-88